sensor_id;sensor_type;location;lat;lon;timestamp;pressure;altitude;pressure_sealevel;temperature;humidity
45621;BME280;31345;51.522;10.702;2022-07-21T00:00:34;99099.13;;;24.93;59.96
45621;BME280;31345;51.522;10.702;2022-07-21T00:03:03;99112.19;;;24.81;60.15
45621;BME280;31345;51.522;10.702;2022-07-21T00:05:31;99113.47;;;24.85;60.03
45621;BME280;31345;51.522;10.702;2022-07-21T00:07:59;99121.22;;;24.80;59.92
45621;BME280;31345;51.522;10.702;2022-07-21T00:10:28;99113.28;;;24.65;60.27
45621;BME280;31345;51.522;10.702;2022-07-21T00:12:57;99118.13;;;24.54;60.49
45621;BME280;31345;51.522;10.702;2022-07-21T00:15:27;99122.69;;;24.61;60.39
45621;BME280;31345;51.522;10.702;2022-07-21T00:17:56;99114.38;;;24.49;60.39
45621;BME280;31345;51.522;10.702;2022-07-21T00:20:24;99127.94;;;24.47;60.57
45621;BME280;31345;51.522;10.702;2022-07-21T00:22:54;99126.75;;;24.13;61.91
45621;BME280;31345;51.522;10.702;2022-07-21T00:25:22;99111.44;;;24.22;60.75
45621;BME280;31345;51.522;10.702;2022-07-21T00:27:51;99116.38;;;23.88;62.44
45621;BME280;31345;51.522;10.702;2022-07-21T00:30:19;99093.28;;;23.95;62.17
45621;BME280;31345;51.522;10.702;2022-07-21T00:32:47;99099.09;;;23.84;62.57
45621;BME280;31345;51.522;10.702;2022-07-21T00:35:15;99081.19;;;23.99;61.40
45621;BME280;31345;51.522;10.702;2022-07-21T00:37:43;99077.84;;;23.75;62.34
45621;BME280;31345;51.522;10.702;2022-07-21T00:40:11;99067.44;;;23.80;62.05
45621;BME280;31345;51.522;10.702;2022-07-21T00:42:42;99047.09;;;23.79;61.93
45621;BME280;31345;51.522;10.702;2022-07-21T00:45:12;99038.13;;;23.65;62.97
45621;BME280;31345;51.522;10.702;2022-07-21T00:47:41;99037.94;;;23.67;62.91
45621;BME280;31345;51.522;10.702;2022-07-21T00:50:12;99036.28;;;23.88;61.36
45621;BME280;31345;51.522;10.702;2022-07-21T00:52:40;99047.75;;;24.03;60.36
45621;BME280;31345;51.522;10.702;2022-07-21T00:55:11;99071.50;;;24.13;59.81
45621;BME280;31345;51.522;10.702;2022-07-21T00:57:39;99068.66;;;24.15;59.73
45621;BME280;31345;51.522;10.702;2022-07-21T01:00:09;99081.63;;;24.18;59.71
45621;BME280;31345;51.522;10.702;2022-07-21T01:02:39;99078.50;;;24.14;60.00
45621;BME280;31345;51.522;10.702;2022-07-21T01:05:09;99087.28;;;24.08;60.63
45621;BME280;31345;51.522;10.702;2022-07-21T01:07:41;99089.50;;;24.26;59.80
45621;BME280;31345;51.522;10.702;2022-07-21T01:10:10;99103.94;;;23.95;61.39
45621;BME280;31345;51.522;10.702;2022-07-21T01:12:39;99097.47;;;24.04;60.73
45621;BME280;31345;51.522;10.702;2022-07-21T01:15:09;99093.59;;;23.70;61.56
45621;BME280;31345;51.522;10.702;2022-07-21T01:17:39;99092.09;;;23.83;61.11
45621;BME280;31345;51.522;10.702;2022-07-21T01:20:10;99094.53;;;23.62;62.29
45621;BME280;31345;51.522;10.702;2022-07-21T01:22:42;99084.75;;;23.70;61.62
45621;BME280;31345;51.522;10.702;2022-07-21T01:25:10;99084.06;;;23.61;62.09
45621;BME280;31345;51.522;10.702;2022-07-21T01:27:38;99079.00;;;23.51;62.27
45621;BME280;31345;51.522;10.702;2022-07-21T01:30:08;99072.22;;;23.33;63.21
45621;BME280;31345;51.522;10.702;2022-07-21T01:32:37;99083.34;;;23.37;63.08
45621;BME280;31345;51.522;10.702;2022-07-21T01:35:08;99097.00;;;23.64;62.06
45621;BME280;31345;51.522;10.702;2022-07-21T01:37:38;99101.53;;;23.48;62.23
45621;BME280;31345;51.522;10.702;2022-07-21T01:40:09;99110.81;;;23.67;61.89
45621;BME280;31345;51.522;10.702;2022-07-21T01:42:54;99110.00;;;23.67;61.97
45621;BME280;31345;51.522;10.702;2022-07-21T01:45:22;99115.44;;;23.44;63.46
45621;BME280;31345;51.522;10.702;2022-07-21T01:47:50;99106.97;;;23.25;64.26
45621;BME280;31345;51.522;10.702;2022-07-21T01:50:18;99105.16;;;23.25;63.91
45621;BME280;31345;51.522;10.702;2022-07-21T01:52:47;99104.41;;;23.32;63.19
45621;BME280;31345;51.522;10.702;2022-07-21T01:55:17;99125.94;;;23.45;62.63
45621;BME280;31345;51.522;10.702;2022-07-21T01:57:44;99137.47;;;23.22;64.28
45621;BME280;31345;51.522;10.702;2022-07-21T02:00:12;99133.66;;;23.40;63.71
45621;BME280;31345;51.522;10.702;2022-07-21T02:02:40;99112.72;;;23.13;64.98
45621;BME280;31345;51.522;10.702;2022-07-21T02:05:08;99101.31;;;23.05;65.75
45621;BME280;31345;51.522;10.702;2022-07-21T02:07:36;99109.41;;;22.96;66.26
45621;BME280;31345;51.522;10.702;2022-07-21T02:10:05;99104.88;;;22.82;67.31
45621;BME280;31345;51.522;10.702;2022-07-21T02:12:34;99097.16;;;22.48;70.55
45621;BME280;31345;51.522;10.702;2022-07-21T02:15:02;99081.22;;;22.40;71.02
45621;BME280;31345;51.522;10.702;2022-07-21T02:17:30;99073.72;;;22.44;70.19
45621;BME280;31345;51.522;10.702;2022-07-21T02:19:58;99074.13;;;22.56;69.68
45621;BME280;31345;51.522;10.702;2022-07-21T02:22:26;99063.81;;;22.29;70.67
45621;BME280;31345;51.522;10.702;2022-07-21T02:24:54;99045.13;;;22.61;68.98
45621;BME280;31345;51.522;10.702;2022-07-21T02:27:21;99045.94;;;22.76;67.58
45621;BME280;31345;51.522;10.702;2022-07-21T02:29:51;99036.00;;;22.55;69.73
45621;BME280;31345;51.522;10.702;2022-07-21T02:32:18;99045.13;;;22.91;67.73
45621;BME280;31345;51.522;10.702;2022-07-21T02:34:46;99047.25;;;22.96;68.99
45621;BME280;31345;51.522;10.702;2022-07-21T02:37:14;99055.19;;;23.04;67.25
45621;BME280;31345;51.522;10.702;2022-07-21T02:39:41;99061.56;;;22.80;68.99
45621;BME280;31345;51.522;10.702;2022-07-21T02:42:10;99066.38;;;22.46;71.52
45621;BME280;31345;51.522;10.702;2022-07-21T02:44:40;99072.25;;;22.41;70.47
45621;BME280;31345;51.522;10.702;2022-07-21T02:47:09;99075.31;;;22.53;70.71
45621;BME280;31345;51.522;10.702;2022-07-21T02:49:38;99082.53;;;22.68;69.75
45621;BME280;31345;51.522;10.702;2022-07-21T02:52:06;99092.53;;;22.66;70.42
45621;BME280;31345;51.522;10.702;2022-07-21T02:54:33;99102.63;;;22.55;70.12
45621;BME280;31345;51.522;10.702;2022-07-21T02:57:01;99115.63;;;22.50;71.55
45621;BME280;31345;51.522;10.702;2022-07-21T02:59:29;99121.25;;;22.55;69.89
45621;BME280;31345;51.522;10.702;2022-07-21T03:01:57;99140.06;;;22.77;68.44
45621;BME280;31345;51.522;10.702;2022-07-21T03:04:26;99146.44;;;22.91;67.75
45621;BME280;31345;51.522;10.702;2022-07-21T03:06:53;99143.75;;;22.76;69.13
45621;BME280;31345;51.522;10.702;2022-07-21T03:09:21;99144.69;;;22.60;70.70
45621;BME280;31345;51.522;10.702;2022-07-21T03:11:49;99159.44;;;22.71;70.11
45621;BME280;31345;51.522;10.702;2022-07-21T03:14:17;99160.41;;;22.23;72.47
45621;BME280;31345;51.522;10.702;2022-07-21T03:16:44;99171.13;;;22.06;73.24
45621;BME280;31345;51.522;10.702;2022-07-21T03:19:12;99178.28;;;22.37;71.24
45621;BME280;31345;51.522;10.702;2022-07-21T03:21:42;99184.00;;;22.26;72.62
45621;BME280;31345;51.522;10.702;2022-07-21T03:24:09;99188.13;;;22.37;75.45
45621;BME280;31345;51.522;10.702;2022-07-21T03:26:37;99192.03;;;22.18;75.65
45621;BME280;31345;51.522;10.702;2022-07-21T03:29:05;99191.41;;;21.67;78.68
45621;BME280;31345;51.522;10.702;2022-07-21T03:31:33;99190.25;;;21.61;80.15
45621;BME280;31345;51.522;10.702;2022-07-21T03:34:01;99185.28;;;21.67;76.72
45621;BME280;31345;51.522;10.702;2022-07-21T03:36:28;99180.63;;;21.60;80.66
45621;BME280;31345;51.522;10.702;2022-07-21T03:38:57;99179.63;;;21.45;80.82
45621;BME280;31345;51.522;10.702;2022-07-21T03:41:25;99190.13;;;21.55;81.18
45621;BME280;31345;51.522;10.702;2022-07-21T03:43:53;99188.13;;;21.32;81.86
45621;BME280;31345;51.522;10.702;2022-07-21T03:46:21;99179.31;;;21.56;80.12
45621;BME280;31345;51.522;10.702;2022-07-21T03:48:48;99177.03;;;21.20;83.73
45621;BME280;31345;51.522;10.702;2022-07-21T03:51:16;99174.03;;;21.31;81.69
45621;BME280;31345;51.522;10.702;2022-07-21T03:53:44;99180.47;;;21.54;79.06
45621;BME280;31345;51.522;10.702;2022-07-21T03:56:13;99187.47;;;21.38;81.94
45621;BME280;31345;51.522;10.702;2022-07-21T03:58:41;99209.38;;;21.65;80.19
45621;BME280;31345;51.522;10.702;2022-07-21T04:01:09;99218.66;;;21.78;79.01
45621;BME280;31345;51.522;10.702;2022-07-21T04:03:36;99224.88;;;21.53;83.42
45621;BME280;31345;51.522;10.702;2022-07-21T04:06:04;99226.03;;;21.51;85.88
45621;BME280;31345;51.522;10.702;2022-07-21T04:08:36;99204.75;;;20.92;87.56
45621;BME280;31345;51.522;10.702;2022-07-21T04:11:04;99190.66;;;20.92;87.89
45621;BME280;31345;51.522;10.702;2022-07-21T04:13:33;99188.47;;;21.20;83.70
45621;BME280;31345;51.522;10.702;2022-07-21T04:16:01;99196.13;;;21.15;83.86
45621;BME280;31345;51.522;10.702;2022-07-21T04:18:28;99208.09;;;21.11;85.55
45621;BME280;31345;51.522;10.702;2022-07-21T04:20:56;99207.59;;;21.16;85.55
45621;BME280;31345;51.522;10.702;2022-07-21T04:23:23;99213.91;;;21.40;83.21
45621;BME280;31345;51.522;10.702;2022-07-21T04:25:51;99220.19;;;21.47;83.33
45621;BME280;31345;51.522;10.702;2022-07-21T04:28:19;99224.38;;;21.16;86.25
45621;BME280;31345;51.522;10.702;2022-07-21T04:30:48;99230.34;;;21.43;82.84
45621;BME280;31345;51.522;10.702;2022-07-21T04:33:16;99241.31;;;21.32;85.46
45621;BME280;31345;51.522;10.702;2022-07-21T04:35:44;99248.28;;;21.00;91.16
45621;BME280;31345;51.522;10.702;2022-07-21T04:38:12;99239.81;;;21.29;86.42
45621;BME280;31345;51.522;10.702;2022-07-21T04:40:40;99236.00;;;20.99;90.69
45621;BME280;31345;51.522;10.702;2022-07-21T04:43:08;99242.16;;;20.99;90.60
45621;BME280;31345;51.522;10.702;2022-07-21T04:45:35;99251.78;;;21.00;93.27
45621;BME280;31345;51.522;10.702;2022-07-21T04:48:05;99257.91;;;20.84;92.71
45621;BME280;31345;51.522;10.702;2022-07-21T04:50:32;99260.19;;;20.62;96.63
45621;BME280;31345;51.522;10.702;2022-07-21T04:53:00;99258.03;;;20.57;96.94
45621;BME280;31345;51.522;10.702;2022-07-21T04:55:28;99268.88;;;20.73;96.41
45621;BME280;31345;51.522;10.702;2022-07-21T04:57:56;99269.53;;;20.83;93.68
45621;BME280;31345;51.522;10.702;2022-07-21T05:00:25;99263.72;;;20.71;96.76
45621;BME280;31345;51.522;10.702;2022-07-21T05:02:54;99271.03;;;20.77;99.25
45621;BME280;31345;51.522;10.702;2022-07-21T05:05:23;99276.28;;;20.61;100.00
45621;BME280;31345;51.522;10.702;2022-07-21T05:07:51;99275.53;;;20.85;94.18
45621;BME280;31345;51.522;10.702;2022-07-21T05:10:19;99279.50;;;20.81;96.24
45621;BME280;31345;51.522;10.702;2022-07-21T05:12:47;99275.31;;;20.78;95.22
45621;BME280;31345;51.522;10.702;2022-07-21T05:15:15;99271.56;;;20.89;98.69
45621;BME280;31345;51.522;10.702;2022-07-21T05:17:44;99272.38;;;20.90;93.68
45621;BME280;31345;51.522;10.702;2022-07-21T05:20:11;99267.75;;;21.17;93.50
45621;BME280;31345;51.522;10.702;2022-07-21T05:22:41;99271.72;;;20.88;99.88
45621;BME280;31345;51.522;10.702;2022-07-21T05:25:09;99277.88;;;21.13;100.00
45621;BME280;31345;51.522;10.702;2022-07-21T05:27:37;99271.09;;;21.52;97.48
45621;BME280;31345;51.522;10.702;2022-07-21T05:30:05;99262.25;;;21.77;95.30
45621;BME280;31345;51.522;10.702;2022-07-21T05:32:33;99266.31;;;22.04;93.12
45621;BME280;31345;51.522;10.702;2022-07-21T05:35:01;99272.72;;;22.27;89.97
45621;BME280;31345;51.522;10.702;2022-07-21T05:37:34;99267.97;;;22.54;88.05
45621;BME280;31345;51.522;10.702;2022-07-21T05:40:06;99274.97;;;22.78;84.03
45621;BME280;31345;51.522;10.702;2022-07-21T05:42:34;99277.16;;;22.74;86.66
45621;BME280;31345;51.522;10.702;2022-07-21T05:45:03;99271.97;;;23.05;83.55
45621;BME280;31345;51.522;10.702;2022-07-21T05:47:31;99252.75;;;23.09;84.15
45621;BME280;31345;51.522;10.702;2022-07-21T05:49:58;99250.81;;;23.26;81.86
45621;BME280;31345;51.522;10.702;2022-07-21T05:52:26;99240.16;;;23.26;82.99
45621;BME280;31345;51.522;10.702;2022-07-21T05:54:54;99248.66;;;23.22;82.59
45621;BME280;31345;51.522;10.702;2022-07-21T05:57:23;99246.19;;;22.97;80.29
45621;BME280;31345;51.522;10.702;2022-07-21T05:59:51;99262.72;;;22.92;83.36
45621;BME280;31345;51.522;10.702;2022-07-21T06:02:19;99265.00;;;23.19;78.97
45621;BME280;31345;51.522;10.702;2022-07-21T06:04:47;99273.53;;;22.99;82.79
45621;BME280;31345;51.522;10.702;2022-07-21T06:07:14;99289.41;;;22.60;84.97
45621;BME280;31345;51.522;10.702;2022-07-21T06:09:42;99280.44;;;22.53;84.85
45621;BME280;31345;51.522;10.702;2022-07-21T06:12:09;99276.50;;;22.72;84.15
45621;BME280;31345;51.522;10.702;2022-07-21T06:14:38;99264.69;;;22.98;82.52
45621;BME280;31345;51.522;10.702;2022-07-21T06:17:06;99260.59;;;22.87;84.88
45621;BME280;31345;51.522;10.702;2022-07-21T06:19:33;99265.53;;;22.99;82.75
45621;BME280;31345;51.522;10.702;2022-07-21T06:22:01;99263.50;;;23.24;79.04
45621;BME280;31345;51.522;10.702;2022-07-21T06:24:29;99261.50;;;23.26;79.91
45621;BME280;31345;51.522;10.702;2022-07-21T06:26:57;99265.44;;;22.84;84.28
45621;BME280;31345;51.522;10.702;2022-07-21T06:29:24;99254.44;;;22.63;84.02
45621;BME280;31345;51.522;10.702;2022-07-21T06:31:53;99265.84;;;22.72;85.05
45621;BME280;31345;51.522;10.702;2022-07-21T06:34:21;99265.16;;;22.79;82.04
45621;BME280;31345;51.522;10.702;2022-07-21T06:36:49;99279.00;;;22.42;91.09
45621;BME280;31345;51.522;10.702;2022-07-21T06:39:17;99285.81;;;22.76;87.62
45621;BME280;31345;51.522;10.702;2022-07-21T06:41:44;99295.22;;;22.64;89.80
45621;BME280;31345;51.522;10.702;2022-07-21T06:44:12;99305.88;;;22.64;87.73
45621;BME280;31345;51.522;10.702;2022-07-21T06:46:40;99303.97;;;22.49;90.11
45621;BME280;31345;51.522;10.702;2022-07-21T06:49:09;99300.66;;;22.79;84.06
45621;BME280;31345;51.522;10.702;2022-07-21T06:51:36;99297.81;;;22.81;85.13
45621;BME280;31345;51.522;10.702;2022-07-21T06:54:04;99287.50;;;23.01;82.21
45621;BME280;31345;51.522;10.702;2022-07-21T06:56:32;99290.56;;;22.89;88.73
45621;BME280;31345;51.522;10.702;2022-07-21T06:59:00;99288.47;;;22.76;89.30
45621;BME280;31345;51.522;10.702;2022-07-21T07:01:27;99304.50;;;23.00;84.95
45621;BME280;31345;51.522;10.702;2022-07-21T07:03:55;99305.81;;;23.27;85.35
45621;BME280;31345;51.522;10.702;2022-07-21T07:06:24;99301.09;;;23.38;85.63
45621;BME280;31345;51.522;10.702;2022-07-21T07:08:51;99300.69;;;23.64;79.26
45621;BME280;31345;51.522;10.702;2022-07-21T07:11:19;99310.31;;;23.50;84.52
45621;BME280;31345;51.522;10.702;2022-07-21T07:13:47;99300.94;;;23.54;81.75
45621;BME280;31345;51.522;10.702;2022-07-21T07:16:14;99297.59;;;23.52;82.61
45621;BME280;31345;51.522;10.702;2022-07-21T07:18:42;99300.25;;;23.37;82.05
45621;BME280;31345;51.522;10.702;2022-07-21T07:21:10;99313.16;;;23.49;82.93
45621;BME280;31345;51.522;10.702;2022-07-21T07:23:39;99306.34;;;23.46;83.19
45621;BME280;31345;51.522;10.702;2022-07-21T07:26:07;99314.03;;;23.79;79.68
45621;BME280;31345;51.522;10.702;2022-07-21T07:28:35;99311.00;;;23.83;78.67
45621;BME280;31345;51.522;10.702;2022-07-21T07:31:02;99313.78;;;23.74;80.28
45621;BME280;31345;51.522;10.702;2022-07-21T07:33:30;99312.56;;;23.62;81.67
45621;BME280;31345;51.522;10.702;2022-07-21T07:35:58;99311.53;;;23.63;82.22
45621;BME280;31345;51.522;10.702;2022-07-21T07:38:26;99316.78;;;23.33;82.88
45621;BME280;31345;51.522;10.702;2022-07-21T07:40:55;99318.19;;;23.20;82.71
45621;BME280;31345;51.522;10.702;2022-07-21T07:43:23;99311.50;;;23.01;86.29
45621;BME280;31345;51.522;10.702;2022-07-21T07:45:50;99319.50;;;23.24;82.93
45621;BME280;31345;51.522;10.702;2022-07-21T07:48:18;99324.25;;;23.37;83.65
45621;BME280;31345;51.522;10.702;2022-07-21T07:50:45;99319.78;;;23.53;83.81
45621;BME280;31345;51.522;10.702;2022-07-21T07:53:13;99307.94;;;24.09;81.40
45621;BME280;31345;51.522;10.702;2022-07-21T07:55:41;99314.28;;;24.23;78.41
45621;BME280;31345;51.522;10.702;2022-07-21T07:58:10;99313.88;;;24.56;77.92
45621;BME280;31345;51.522;10.702;2022-07-21T08:00:38;99313.66;;;24.73;75.16
45621;BME280;31345;51.522;10.702;2022-07-21T08:03:06;99317.97;;;24.89;77.66
45621;BME280;31345;51.522;10.702;2022-07-21T08:05:33;99319.75;;;24.67;78.31
45621;BME280;31345;51.522;10.702;2022-07-21T08:08:01;99326.63;;;24.24;79.25
45621;BME280;31345;51.522;10.702;2022-07-21T08:10:29;99324.69;;;24.33;78.93
45621;BME280;31345;51.522;10.702;2022-07-21T08:12:57;99325.66;;;24.02;80.69
45621;BME280;31345;51.522;10.702;2022-07-21T08:15:26;99323.63;;;24.64;80.26
45621;BME280;31345;51.522;10.702;2022-07-21T08:17:54;99319.63;;;24.75;76.85
45621;BME280;31345;51.522;10.702;2022-07-21T08:20:22;99326.25;;;24.94;78.46
45621;BME280;31345;51.522;10.702;2022-07-21T08:22:49;99306.53;;;25.17;76.21
45621;BME280;31345;51.522;10.702;2022-07-21T08:25:17;99308.03;;;25.27;77.21
45621;BME280;31345;51.522;10.702;2022-07-21T08:27:45;99311.25;;;25.15;75.79
45621;BME280;31345;51.522;10.702;2022-07-21T08:30:13;99312.34;;;25.21;76.71
45621;BME280;31345;51.522;10.702;2022-07-21T08:32:45;99309.56;;;25.14;76.21
45621;BME280;31345;51.522;10.702;2022-07-21T08:35:14;99310.00;;;24.96;74.33
45621;BME280;31345;51.522;10.702;2022-07-21T08:37:51;99313.59;;;25.03;76.94
45621;BME280;31345;51.522;10.702;2022-07-21T08:40:22;99312.69;;;25.40;77.65
45621;BME280;31345;51.522;10.702;2022-07-21T08:42:51;99306.66;;;25.59;73.40
45621;BME280;31345;51.522;10.702;2022-07-21T08:45:19;99296.16;;;25.58;72.16
45621;BME280;31345;51.522;10.702;2022-07-21T08:47:51;99298.13;;;25.71;73.29
45621;BME280;31345;51.522;10.702;2022-07-21T08:50:19;99295.59;;;25.63;72.17
45621;BME280;31345;51.522;10.702;2022-07-21T08:52:47;99303.81;;;25.61;72.22
45621;BME280;31345;51.522;10.702;2022-07-21T08:55:15;99297.47;;;25.40;72.00
45621;BME280;31345;51.522;10.702;2022-07-21T08:57:43;99300.09;;;25.33;73.24
45621;BME280;31345;51.522;10.702;2022-07-21T09:00:12;99300.28;;;25.32;73.99
45621;BME280;31345;51.522;10.702;2022-07-21T09:02:45;99298.31;;;25.19;71.20
45621;BME280;31345;51.522;10.702;2022-07-21T09:05:15;99304.63;;;25.11;72.33
45621;BME280;31345;51.522;10.702;2022-07-21T09:07:48;99296.53;;;25.55;74.90
45621;BME280;31345;51.522;10.702;2022-07-21T09:10:21;99278.84;;;26.18;70.14
45621;BME280;31345;51.522;10.702;2022-07-21T09:12:52;99277.41;;;26.71;69.13
45621;BME280;31345;51.522;10.702;2022-07-21T09:15:23;99283.59;;;26.71;67.43
45621;BME280;31345;51.522;10.702;2022-07-21T09:18:04;99296.00;;;26.30;70.38
45621;BME280;31345;51.522;10.702;2022-07-21T09:20:34;99298.22;;;25.56;73.04
45621;BME280;31345;51.522;10.702;2022-07-21T09:23:04;99308.34;;;25.17;74.34
45621;BME280;31345;51.522;10.702;2022-07-21T09:25:36;99308.31;;;25.32;74.08
45621;BME280;31345;51.522;10.702;2022-07-21T09:28:09;99304.03;;;25.38;73.74
45621;BME280;31345;51.522;10.702;2022-07-21T09:30:55;99295.19;;;25.94;72.39
45621;BME280;31345;51.522;10.702;2022-07-21T09:33:28;99301.91;;;26.19;73.37
45621;BME280;31345;51.522;10.702;2022-07-21T09:36:02;99315.97;;;25.85;70.29
45621;BME280;31345;51.522;10.702;2022-07-21T09:38:32;99317.41;;;25.88;68.18
45621;BME280;31345;51.522;10.702;2022-07-21T09:41:08;99320.13;;;25.66;70.98
45621;BME280;31345;51.522;10.702;2022-07-21T09:43:39;99328.34;;;25.43;71.32
45621;BME280;31345;51.522;10.702;2022-07-21T09:46:11;99317.59;;;25.36;70.48
45621;BME280;31345;51.522;10.702;2022-07-21T09:48:40;99322.13;;;25.36;68.54
45621;BME280;31345;51.522;10.702;2022-07-21T09:51:30;99322.19;;;25.64;67.60
45621;BME280;31345;51.522;10.702;2022-07-21T09:54:00;99322.91;;;25.80;67.16
45621;BME280;31345;51.522;10.702;2022-07-21T09:56:29;99317.84;;;25.92;65.91
45621;BME280;31345;51.522;10.702;2022-07-21T09:58:58;99305.06;;;26.29;67.11
45621;BME280;31345;51.522;10.702;2022-07-21T10:01:27;99310.75;;;26.55;65.66
45621;BME280;31345;51.522;10.702;2022-07-21T10:03:56;99313.88;;;26.58;64.11
45621;BME280;31345;51.522;10.702;2022-07-21T10:06:26;99316.41;;;26.87;64.37
45621;BME280;31345;51.522;10.702;2022-07-21T10:08:56;99315.47;;;27.08;63.91
45621;BME280;31345;51.522;10.702;2022-07-21T10:11:26;99315.13;;;26.69;63.55
45621;BME280;31345;51.522;10.702;2022-07-21T10:13:54;99314.94;;;26.22;64.86
45621;BME280;31345;51.522;10.702;2022-07-21T10:16:22;99317.59;;;25.87;65.77
45621;BME280;31345;51.522;10.702;2022-07-21T10:18:59;99319.03;;;25.82;65.51
45621;BME280;31345;51.522;10.702;2022-07-21T10:21:35;99304.22;;;25.87;64.51
45621;BME280;31345;51.522;10.702;2022-07-21T10:24:06;99312.81;;;25.53;63.55
45621;BME280;31345;51.522;10.702;2022-07-21T10:26:37;99314.03;;;25.29;63.03
45621;BME280;31345;51.522;10.702;2022-07-21T10:29:04;99312.72;;;25.18;64.30
45621;BME280;31345;51.522;10.702;2022-07-21T10:31:41;99305.56;;;25.25;65.04
45621;BME280;31345;51.522;10.702;2022-07-21T10:34:09;99298.56;;;25.75;63.87
45621;BME280;31345;51.522;10.702;2022-07-21T10:36:44;99289.13;;;26.21;63.45
45621;BME280;31345;51.522;10.702;2022-07-21T10:39:20;99281.69;;;26.58;62.20
45621;BME280;31345;51.522;10.702;2022-07-21T10:41:51;99282.38;;;26.81;60.51
45621;BME280;31345;51.522;10.702;2022-07-21T10:44:42;99269.84;;;27.15;58.66
45621;BME280;31345;51.522;10.702;2022-07-21T10:47:13;99279.34;;;27.31;58.26
45621;BME280;31345;51.522;10.702;2022-07-21T10:49:49;99286.50;;;26.97;58.65
45621;BME280;31345;51.522;10.702;2022-07-21T10:55:36;99280.28;;;26.76;60.13
45621;BME280;31345;51.522;10.702;2022-07-21T10:58:12;99266.13;;;27.50;60.37
45621;BME280;31345;51.522;10.702;2022-07-21T11:00:48;99270.03;;;27.81;59.75
45621;BME280;31345;51.522;10.702;2022-07-21T11:03:20;99256.53;;;28.01;56.63
45621;BME280;31345;51.522;10.702;2022-07-21T11:06:15;99255.19;;;28.31;57.95
45621;BME280;31345;51.522;10.702;2022-07-21T11:08:45;99258.50;;;28.26;56.06
45621;BME280;31345;51.522;10.702;2022-07-21T11:11:15;99255.03;;;28.19;56.12
45621;BME280;31345;51.522;10.702;2022-07-21T11:14:01;99258.06;;;28.36;55.10
45621;BME280;31345;51.522;10.702;2022-07-21T11:19:37;99243.28;;;28.13;52.14
45621;BME280;31345;51.522;10.702;2022-07-21T11:22:08;99250.41;;;27.81;52.74
45621;BME280;31345;51.522;10.702;2022-07-21T11:24:37;99249.00;;;27.37;53.92
45621;BME280;31345;51.522;10.702;2022-07-21T11:27:09;99254.16;;;27.46;54.90
45621;BME280;31345;51.522;10.702;2022-07-21T11:29:41;99261.59;;;27.17;57.20
45621;BME280;31345;51.522;10.702;2022-07-21T11:32:10;99252.88;;;27.01;55.33
45621;BME280;31345;51.522;10.702;2022-07-21T11:34:43;99251.28;;;27.13;53.13
45621;BME280;31345;51.522;10.702;2022-07-21T11:37:12;99249.59;;;26.99;55.02
45621;BME280;31345;51.522;10.702;2022-07-21T11:39:40;99256.22;;;27.10;53.77
45621;BME280;31345;51.522;10.702;2022-07-21T11:42:12;99256.66;;;27.27;53.34
45621;BME280;31345;51.522;10.702;2022-07-21T11:44:42;99249.63;;;27.12;52.31
45621;BME280;31345;51.522;10.702;2022-07-21T11:47:12;99240.94;;;27.44;51.89
45621;BME280;31345;51.522;10.702;2022-07-21T11:49:42;99240.47;;;27.88;52.00
45621;BME280;31345;51.522;10.702;2022-07-21T11:52:12;99244.84;;;27.55;52.45
45621;BME280;31345;51.522;10.702;2022-07-21T11:54:46;99244.66;;;27.43;53.24
45621;BME280;31345;51.522;10.702;2022-07-21T11:57:17;99247.75;;;27.20;52.76
45621;BME280;31345;51.522;10.702;2022-07-21T11:59:47;99254.78;;;27.34;54.67
45621;BME280;31345;51.522;10.702;2022-07-21T12:02:17;99244.56;;;27.97;52.29
45621;BME280;31345;51.522;10.702;2022-07-21T12:04:46;99238.56;;;28.02;51.94
45621;BME280;31345;51.522;10.702;2022-07-21T12:07:18;99243.41;;;28.32;51.78
45621;BME280;31345;51.522;10.702;2022-07-21T12:09:49;99241.50;;;28.39;48.90
45621;BME280;31345;51.522;10.702;2022-07-21T12:12:29;99242.28;;;28.53;49.89
45621;BME280;31345;51.522;10.702;2022-07-21T12:14:57;99222.97;;;28.24;49.22
45621;BME280;31345;51.522;10.702;2022-07-21T12:17:33;99241.25;;;28.02;51.31
45621;BME280;31345;51.522;10.702;2022-07-21T12:20:02;99247.69;;;27.87;49.82
45621;BME280;31345;51.522;10.702;2022-07-21T12:22:35;99236.41;;;28.24;49.48
45621;BME280;31345;51.522;10.702;2022-07-21T12:25:04;99243.97;;;28.48;48.58
45621;BME280;31345;51.522;10.702;2022-07-21T12:27:36;99238.72;;;28.14;47.94
45621;BME280;31345;51.522;10.702;2022-07-21T12:30:07;99239.22;;;27.90;48.15
45621;BME280;31345;51.522;10.702;2022-07-21T12:32:43;99245.19;;;27.93;48.96
45621;BME280;31345;51.522;10.702;2022-07-21T12:35:20;99230.91;;;28.51;48.11
45621;BME280;31345;51.522;10.702;2022-07-21T12:38:00;99242.81;;;28.69;46.97
45621;BME280;31345;51.522;10.702;2022-07-21T12:40:31;99235.59;;;28.95;46.72
45621;BME280;31345;51.522;10.702;2022-07-21T12:43:10;99231.22;;;29.26;45.98
45621;BME280;31345;51.522;10.702;2022-07-21T12:45:49;99237.75;;;28.79;46.32
45621;BME280;31345;51.522;10.702;2022-07-21T12:48:19;99228.38;;;28.63;46.18
45621;BME280;31345;51.522;10.702;2022-07-21T12:51:05;99231.16;;;29.08;46.41
45621;BME280;31345;51.522;10.702;2022-07-21T12:53:36;99239.66;;;28.79;45.77
45621;BME280;31345;51.522;10.702;2022-07-21T12:56:04;99236.69;;;28.87;45.13
45621;BME280;31345;51.522;10.702;2022-07-21T12:58:38;99234.47;;;28.77;46.79
45621;BME280;31345;51.522;10.702;2022-07-21T13:01:08;99229.31;;;28.76;46.77
45621;BME280;31345;51.522;10.702;2022-07-21T13:03:37;99241.44;;;28.92;46.39
45621;BME280;31345;51.522;10.702;2022-07-21T13:06:06;99231.66;;;28.65;45.36
45621;BME280;31345;51.522;10.702;2022-07-21T13:08:34;99236.06;;;28.60;46.58